Time;durP1;ratioP1;P1;durP2;ratioP2;P2;SDS_P1;SDS_P2;PMS_P1;PMS_P2;Temp;Humidity;BMP_temperature;BMP_pressure;BME280_temperature;BME280_humidity;BME280_pressure;Samples;Min_cycle;Max_cycle;Signal;HPM_P1;HPM_P2
2021/12/14 00:00:03;;;;;;;10.63;6.10;;;;;;;;;;5133386;27;20033;-74
2021/12/14 00:02:30;;;;;;;7.03;4.72;;;;;;;;;;5130926;27;20023;-74
2021/12/14 00:04:59;;;;;;;8.77;4.70;;;;;;;;;;5130722;27;20037;-74
2021/12/14 00:07:26;;;;;;;9.20;4.78;;;;;;;;;;5130515;27;20025;-74
2021/12/14 00:10:01;;;;;;;10.30;5.35;;;;;;;;;;5131272;27;20028;-74
2021/12/14 00:15:29;;;;;;;8.20;5.05;;;;;;;;;;5070505;28;20258;-74
2021/12/14 00:17:57;;;;;;;10.63;5.47;;;;;;;;;;5070063;28;20042;-74
2021/12/14 00:20:31;;;;;;;9.23;5.10;;;;;;;;;;5067211;28;20035;-74
2021/12/14 00:25:28;;;;;;;8.77;4.68;;;;;;;;;;5067119;28;20043;-75
2021/12/14 00:27:56;;;;;;;11.88;6.03;;;;;;;;;;5051545;28;20035;-74
2021/12/14 00:30:22;;;;;;;12.55;5.72;;;;;;;;;;5070431;28;20039;-75
2021/12/14 00:32:49;;;;;;;11.07;5.90;;;;;;;;;;5066734;28;20040;-74
2021/12/14 00:35:16;;;;;;;11.98;7.47;;;;;;;;;;5068193;28;20130;-75
2021/12/14 00:37:47;;;;;;;7.53;4.88;;;;;;;;;;5052523;28;20047;-75
2021/12/14 00:40:13;;;;;;;6.47;4.15;;;;;;;;;;5066967;28;20041;-74
2021/12/14 00:42:40;;;;;;;7.22;3.97;;;;;;;;;;5068969;28;20056;-74
2021/12/14 00:45:07;;;;;;;6.22;4.00;;;;;;;;;;5068061;28;20047;-74
2021/12/14 00:47:33;;;;;;;6.57;4.00;;;;;;;;;;5066787;28;20032;-75
2021/12/14 00:49:59;;;;;;;5.35;3.75;;;;;;;;;;5069687;28;20031;-74
2021/12/14 00:52:26;;;;;;;4.18;2.75;;;;;;;;;;5109135;28;20028;-74
2021/12/14 00:54:52;;;;;;;5.63;3.65;;;;;;;;;;5109799;28;20040;-75
2021/12/14 00:57:19;;;;;;;6.03;3.53;;;;;;;;;;5112376;28;20027;-75
2021/12/14 00:59:45;;;;;;;8.48;4.07;;;;;;;;;;5109079;28;20036;-75
2021/12/14 01:02:14;;;;;;;7.55;4.25;;;;;;;;;;5109144;28;20031;-74
2021/12/14 01:04:47;;;;;;;7.13;3.78;;;;;;;;;;5108524;28;20026;-74
2021/12/14 01:07:15;;;;;;;6.35;3.63;;;;;;;;;;5109260;28;20028;-74
2021/12/14 01:09:44;;;;;;;5.60;3.35;;;;;;;;;;5111312;28;20049;-75
2021/12/14 01:12:15;;;;;;;7.80;4.00;;;;;;;;;;5111017;28;20031;-74
2021/12/14 01:14:45;;;;;;;;;;;;;;;;;;5110772;28;20423;-75
2021/12/14 01:18:13;;;;;;;7.10;3.55;;;;;;;;;;5109009;28;19914;-75
2021/12/14 01:20:10;;;;;;;5.93;3.58;;;;;;;;;;5097949;28;20054;-75
2021/12/14 01:22:44;;;;;;;7.40;4.00;;;;;;;;;;5108898;28;20019;-75
2021/12/14 01:25:22;;;;;;;8.30;4.00;;;;;;;;;;5109001;28;20028;-74
2021/12/14 01:27:59;;;;;;;6.45;3.90;;;;;;;;;;5109980;28;20423;-75
2021/12/14 01:30:32;;;;;;;8.25;4.47;;;;;;;;;;5108348;28;20045;-75
2021/12/14 01:33:02;;;;;;;10.35;5.78;;;;;;;;;;5111075;28;20512;-74
2021/12/14 01:35:32;;;;;;;8.43;4.95;;;;;;;;;;5108387;28;20042;-74
2021/12/14 01:38:16;;;;;;;7.05;3.75;;;;;;;;;;5107116;28;20034;-75
2021/12/14 01:40:53;;;;;;;8.57;3.58;;;;;;;;;;5108769;28;20020;-74
2021/12/14 01:43:42;;;;;;;7.60;3.15;;;;;;;;;;5117752;28;20424;-74
2021/12/14 01:46:12;;;;;;;3.97;3.00;;;;;;;;;;5104503;28;20050;-74
2021/12/14 01:48:39;;;;;;;5.32;3.40;;;;;;;;;;5112951;28;20549;-74
2021/12/14 01:51:07;;;;;;;4.97;3.20;;;;;;;;;;5130117;28;20388;-74
2021/12/14 01:53:34;;;;;;;6.22;3.17;;;;;;;;;;5130373;28;20043;-74
2021/12/14 01:56:02;;;;;;;7.97;4.18;;;;;;;;;;5129055;28;20031;-74
2021/12/14 01:58:35;;;;;;;8.32;4.00;;;;;;;;;;5129377;27;20024;-74
2021/12/14 02:01:04;;;;;;;4.88;2.97;;;;;;;;;;5113642;28;20027;-74
2021/12/14 02:03:33;;;;;;;6.45;3.50;;;;;;;;;;5131580;28;20012;-75
2021/12/14 02:05:59;;;;;;;5.78;3.35;;;;;;;;;;5131431;28;20057;-74
2021/12/14 02:08:28;;;;;;;6.30;3.83;;;;;;;;;;5110498;28;20023;-74
2021/12/14 02:10:57;;;;;;;7.63;3.55;;;;;;;;;;5129058;28;20027;-74
2021/12/14 02:13:28;;;;;;;6.45;3.90;;;;;;;;;;5128708;28;20027;-74
2021/12/14 02:15:55;;;;;;;6.70;3.42;;;;;;;;;;5114815;27;20120;-74
2021/12/14 02:18:23;;;;;;;7.13;4.13;;;;;;;;;;5135945;27;20027;-74
2021/12/14 02:20:53;;;;;;;11.25;4.40;;;;;;;;;;5132935;27;20027;-74
2021/12/14 02:23:20;;;;;;;7.00;4.32;;;;;;;;;;5114442;27;20023;-74
2021/12/14 02:25:47;;;;;;;7.03;4.00;;;;;;;;;;5132725;27;20037;-74
2021/12/14 02:28:20;;;;;;;7.57;4.20;;;;;;;;;;5132854;27;20020;-75
2021/12/14 02:30:48;;;;;;;5.82;3.67;;;;;;;;;;5134311;27;20504;-74
2021/12/14 02:33:15;;;;;;;9.48;4.22;;;;;;;;;;5135611;27;20038;-74
2021/12/14 02:35:42;;;;;;;9.95;4.72;;;;;;;;;;5132558;27;20438;-74
2021/12/14 02:38:11;;;;;;;10.98;5.07;;;;;;;;;;5132811;27;20015;-74
2021/12/14 02:41:01;;;;;;;5.80;3.72;;;;;;;;;;5114207;27;20019;-74
2021/12/14 02:43:54;;;;;;;5.00;3.47;;;;;;;;;;5132428;27;20485;-74
2021/12/14 02:46:25;;;;;;;8.30;3.55;;;;;;;;;;5116385;27;20039;-74
2021/12/14 02:48:56;;;;;;;6.05;2.97;;;;;;;;;;5133131;27;20073;-74
2021/12/14 02:51:23;;;;;;;;;;;;;;;;;;5136370;27;20029;-74
2021/12/14 02:53:51;;;;;;;8.90;4.10;;;;;;;;;;5131894;27;19915;-74
2021/12/14 02:56:22;;;;;;;12.50;4.75;;;;;;;;;;5132057;27;20027;-75
2021/12/14 02:58:49;;;;;;;8.55;4.75;;;;;;;;;;5132219;27;20404;-74
2021/12/14 03:01:16;;;;;;;8.38;3.85;;;;;;;;;;5113426;27;20027;-74
2021/12/14 03:03:43;;;;;;;9.50;4.50;;;;;;;;;;5134151;27;20382;-74
2021/12/14 03:06:11;;;;;;;14.18;4.50;;;;;;;;;;5133728;27;20027;-73
2021/12/14 03:08:45;;;;;;;7.38;3.75;;;;;;;;;;5131992;27;20037;-74
2021/12/14 03:11:12;;;;;;;7.45;3.70;;;;;;;;;;5111860;27;20031;-74
2021/12/14 03:13:46;;;;;;;6.90;3.83;;;;;;;;;;5131489;27;20027;-74
2021/12/14 03:16:24;;;;;;;6.60;3.95;;;;;;;;;;5131685;27;20026;-74
2021/12/14 03:18:52;;;;;;;20.80;7.50;;;;;;;;;;5132796;27;20022;-74
2021/12/14 03:21:23;;;;;;;35.67;10.93;;;;;;;;;;5134628;27;20034;-73
2021/12/14 03:23:51;;;;;;;17.50;6.60;;;;;;;;;;5131425;27;20415;-74
2021/12/14 03:26:19;;;;;;;21.98;7.65;;;;;;;;;;5131347;27;20024;-74
2021/12/14 03:28:49;;;;;;;13.00;5.32;;;;;;;;;;5131463;27;20027;-74
2021/12/14 03:31:27;;;;;;;10.23;5.40;;;;;;;;;;5131244;27;20023;-74
2021/12/14 03:33:59;;;;;;;19.02;7.65;;;;;;;;;;5131994;27;20031;-74
2021/12/14 03:36:31;;;;;;;15.70;6.32;;;;;;;;;;5130971;27;20019;-74
2021/12/14 03:39:17;;;;;;;17.38;6.28;;;;;;;;;;5132326;27;20027;-75
2021/12/14 03:41:44;;;;;;;17.02;6.13;;;;;;;;;;5131193;27;20023;-74
2021/12/14 03:44:19;;;;;;;15.38;6.43;;;;;;;;;;5130693;27;20035;-74
2021/12/14 03:46:56;;;;;;;10.23;5.57;;;;;;;;;;5131158;27;20522;-74
2021/12/14 03:49:24;;;;;;;14.00;5.10;;;;;;;;;;5132673;27;20493;-73
2021/12/14 03:51:51;;;;;;;16.90;6.13;;;;;;;;;;5132217;27;20038;-74
2021/12/14 03:54:18;;;;;;;13.82;6.13;;;;;;;;;;5133708;27;20392;-74
2021/12/14 03:56:45;;;;;;;14.82;6.38;;;;;;;;;;5131107;27;20029;-74
2021/12/14 03:59:12;;;;;;;13.57;6.25;;;;;;;;;;5130628;27;20417;-74
2021/12/14 04:01:41;;;;;;;11.48;6.20;;;;;;;;;;5130879;27;20015;-74
2021/12/14 04:04:14;;;;;;;17.73;6.72;;;;;;;;;;5130978;27;20024;-74
2021/12/14 04:06:41;;;;;;;15.70;6.88;;;;;;;;;;5133280;27;20042;-74
2021/12/14 04:09:09;;;;;;;17.65;6.13;;;;;;;;;;5132068;27;20023;-74
2021/12/14 04:11:36;;;;;;;15.52;6.38;;;;;;;;;;5130803;27;20023;-74
2021/12/14 04:14:03;;;;;;;12.35;5.68;;;;;;;;;;5130241;27;20510;-74
2021/12/14 04:16:29;;;;;;;15.85;6.45;;;;;;;;;;5130718;27;20027;-74
2021/12/14 04:19:03;;;;;;;21.27;6.90;;;;;;;;;;5114559;27;20026;-74
2021/12/14 04:21:29;;;;;;;17.50;8.05;;;;;;;;;;5130431;27;20025;-74
2021/12/14 04:23:56;;;;;;;18.92;7.68;;;;;;;;;;5130987;27;20279;-74
2021/12/14 04:26:22;;;;;;;15.90;7.22;;;;;;;;;;5130411;27;20027;-74
2021/12/14 04:28:51;;;;;;;21.75;8.68;;;;;;;;;;5131576;27;20034;-74
2021/12/14 04:31:18;;;;;;;20.85;8.48;;;;;;;;;;5130225;27;20488;-74
2021/12/14 04:33:46;;;;;;;21.45;7.95;;;;;;;;;;5132414;27;20386;-74
2021/12/14 04:36:15;;;;;;;20.67;7.95;;;;;;;;;;5132369;27;20031;-74
2021/12/14 04:38:53;;;;;;;19.60;7.85;;;;;;;;;;5129548;27;20023;-74
2021/12/14 04:52:23;;;;;;;19.60;6.97;;;;;;;;;;5129873;27;20031;-74
2021/12/14 04:54:58;;;;;;;9.38;4.90;;;;;;;;;;5130957;27;20424;-74
2021/12/14 04:57:28;;;;;;;12.50;5.30;;;;;;;;;;5128714;27;20025;-74
2021/12/14 04:59:56;;;;;;;11.60;5.63;;;;;;;;;;5114483;27;20434;-74
2021/12/14 05:02:25;;;;;;;19.73;6.55;;;;;;;;;;5129800;27;20033;-74
2021/12/14 05:04:54;;;;;;;15.52;6.03;;;;;;;;;;5129753;27;20057;-74
2021/12/14 05:10:06;;;;;;;21.83;6.65;;;;;;;;;;5113506;27;20045;-74
2021/12/14 05:12:34;;;;;;;26.90;7.85;;;;;;;;;;5113732;27;20033;-74
2021/12/14 05:15:02;;;;;;;20.83;6.75;;;;;;;;;;5113650;27;20099;-73
2021/12/14 05:17:31;;;;;;;15.60;6.30;;;;;;;;;;5129437;27;20027;-74
2021/12/14 05:19:58;;;;;;;25.50;7.63;;;;;;;;;;5129702;27;20045;-73
2021/12/14 05:22:27;;;;;;;20.15;7.65;;;;;;;;;;5129608;27;20485;-74
2021/12/14 05:24:55;;;;;;;16.52;5.70;;;;;;;;;;5130072;27;20028;-74
2021/12/14 05:27:27;;;;;;;24.75;8.45;;;;;;;;;;5132337;27;20079;-74
2021/12/14 05:29:55;;;;;;;23.13;7.55;;;;;;;;;;5131249;27;20419;-74
2021/12/14 05:32:21;;;;;;;28.45;7.72;;;;;;;;;;5129182;27;20038;-74
2021/12/14 05:34:49;;;;;;;22.05;8.32;;;;;;;;;;5110784;27;20435;-73
2021/12/14 05:37:25;;;;;;;31.70;10.65;;;;;;;;;;5129435;28;20020;-74
2021/12/14 05:39:58;;;;;;;31.00;11.13;;;;;;;;;;5129632;28;20023;-75
2021/12/14 05:45:13;;;;;;;53.03;11.70;;;;;;;;;;5130888;28;20045;-74
2021/12/14 05:47:48;;;;;;;65.85;18.70;;;;;;;;;;5130080;28;20019;-74
2021/12/14 05:50:18;;;;;;;26.13;10.45;;;;;;;;;;5131915;27;20023;-74
2021/12/14 05:52:45;;;;;;;36.05;14.90;;;;;;;;;;5133524;27;20023;-75
2021/12/14 05:55:11;;;;;;;40.53;16.75;;;;;;;;;;5132868;27;20043;-74
2021/12/14 05:57:39;;;;;;;144.77;85.40;;;;;;;;;;5135597;27;20025;-74
2021/12/14 06:00:07;;;;;;;104.47;57.80;;;;;;;;;;5134460;27;20041;-74
2021/12/14 06:02:36;;;;;;;58.92;28.90;;;;;;;;;;5133264;27;20034;-74
2021/12/14 06:05:04;;;;;;;35.67;17.80;;;;;;;;;;5132971;27;20034;-74
2021/12/14 06:07:30;;;;;;;32.63;14.05;;;;;;;;;;5133316;27;20015;-73
2021/12/14 06:09:56;;;;;;;43.38;4.40;;;;;;;;;;5116665;27;20098;-74
2021/12/14 06:12:28;;;;;;;7.65;4.38;;;;;;;;;;5136554;27;20400;-74
2021/12/14 06:14:58;;;;;;;22.02;5.85;;;;;;;;;;5134921;27;20031;-74
2021/12/14 06:17:30;;;;;;;11.65;5.85;;;;;;;;;;5132699;27;20023;-74
2021/12/14 06:20:18;;;;;;;22.67;6.95;;;;;;;;;;5114367;27;20027;-74
2021/12/14 06:22:44;;;;;;;18.75;6.72;;;;;;;;;;5132879;27;20008;-74
2021/12/14 06:25:13;;;;;;;20.52;7.53;;;;;;;;;;5134012;27;20012;-74
2021/12/14 06:27:39;;;;;;;32.30;9.63;;;;;;;;;;5135043;27;20392;-74
2021/12/14 06:30:05;;;;;;;24.50;9.40;;;;;;;;;;5133877;27;20192;-74
2021/12/14 06:32:34;;;;;;;34.35;10.30;;;;;;;;;;5132654;27;20041;-74
2021/12/14 06:35:05;;;;;;;30.17;8.15;;;;;;;;;;5132517;27;20040;-74
2021/12/14 06:40:22;;;;;;;43.10;8.00;;;;;;;;;;5132277;27;20481;-74
2021/12/14 06:42:59;;;;;;;34.78;6.88;;;;;;;;;;5133711;27;20031;-74
2021/12/14 06:45:27;;;;;;;50.08;9.43;;;;;;;;;;5131701;27;20035;-74
2021/12/14 06:47:57;;;;;;;41.38;9.52;;;;;;;;;;5134082;27;20035;-74
2021/12/14 06:50:27;;;;;;;35.67;8.63;;;;;;;;;;5132430;27;20026;-74
2021/12/14 06:52:58;;;;;;;40.72;9.95;;;;;;;;;;5131445;27;20220;-74
2021/12/14 06:55:25;;;;;;;44.83;9.57;;;;;;;;;;5130322;27;20034;-74
2021/12/14 06:57:52;;;;;;;83.82;11.15;;;;;;;;;;5132961;27;20397;-74
2021/12/14 07:00:19;;;;;;;71.82;14.07;;;;;;;;;;5133852;27;20027;-74
2021/12/14 07:02:50;;;;;;;51.80;11.82;;;;;;;;;;5126498;27;20027;-74
2021/12/14 07:05:24;;;;;;;45.88;20.10;;;;;;;;;;5132854;27;20025;-74
2021/12/14 07:07:51;;;;;;;79.93;30.20;;;;;;;;;;5130683;27;20027;-74
2021/12/14 07:10:18;;;;;;;147.85;30.40;;;;;;;;;;5131679;27;20026;-74
2021/12/14 07:12:45;;;;;;;109.38;24.27;;;;;;;;;;5134003;27;20027;-74
2021/12/14 07:15:15;;;;;;;60.53;18.75;;;;;;;;;;5133335;27;20039;-74
2021/12/14 07:17:48;;;;;;;52.13;14.27;;;;;;;;;;5123574;27;20463;-74
2021/12/14 07:20:14;;;;;;;116.10;26.88;;;;;;;;;;5126451;27;20031;-74
2021/12/14 07:22:48;;;;;;;90.50;25.95;;;;;;;;;;5130879;27;20019;-73
2021/12/14 07:25:20;;;;;;;55.50;20.73;;;;;;;;;;5131484;27;20024;-74
2021/12/14 07:27:55;;;;;;;48.90;17.08;;;;;;;;;;5133106;27;20486;-74
2021/12/14 07:30:26;;;;;;;53.80;15.77;;;;;;;;;;5134474;27;20060;-74
2021/12/14 07:33:02;;;;;;;74.32;22.13;;;;;;;;;;5119961;27;20020;-73
2021/12/14 07:35:32;;;;;;;55.00;15.88;;;;;;;;;;5130941;27;20043;-74
2021/12/14 07:38:05;;;;;;;76.17;14.63;;;;;;;;;;5130300;27;20031;-73
2021/12/14 07:40:40;;;;;;;63.65;13.30;;;;;;;;;;5131563;27;20019;-74
2021/12/14 07:43:12;;;;;;;60.38;17.42;;;;;;;;;;5132249;27;20047;-74
2021/12/14 07:45:39;;;;;;;55.50;17.67;;;;;;;;;;5133239;27;20035;-73
2021/12/14 07:48:05;;;;;;;50.20;15.85;;;;;;;;;;5134075;27;20507;-73
2021/12/14 07:50:43;;;;;;;47.25;16.38;;;;;;;;;;5112719;27;20035;-73
2021/12/14 07:53:10;;;;;;;60.25;16.20;;;;;;;;;;5130847;27;20043;-74
2021/12/14 07:55:41;;;;;;;58.00;15.18;;;;;;;;;;5131851;27;20035;-74
2021/12/14 07:58:07;;;;;;;46.65;14.10;;;;;;;;;;5132608;27;20045;-74
2021/12/14 08:00:39;;;;;;;36.67;9.55;;;;;;;;;;5132698;27;20027;-74
2021/12/14 08:03:05;;;;;;;35.92;10.73;;;;;;;;;;5133697;27;20031;-74
2021/12/14 08:05:34;;;;;;;84.13;11.15;;;;;;;;;;5130656;27;20489;-75
2021/12/14 08:08:19;;;;;;;62.25;12.10;;;;;;;;;;5130884;27;20031;-74
2021/12/14 08:10:49;;;;;;;56.90;19.42;;;;;;;;;;5130311;27;20404;-74
2021/12/14 08:13:20;;;;;;;93.47;29.23;;;;;;;;;;5128441;27;20029;-74
2021/12/14 08:15:49;;;;;;;118.93;18.10;;;;;;;;;;5122457;27;20512;-73
2021/12/14 08:18:27;;;;;;;74.18;17.08;;;;;;;;;;5125745;27;20492;-74
2021/12/14 08:20:57;;;;;;;70.50;20.05;;;;;;;;;;5128774;27;20023;-74
2021/12/14 08:23:29;;;;;;;102.90;16.17;;;;;;;;;;5129547;27;20472;-74
2021/12/14 08:25:55;;;;;;;;;;;;;;;;;;5131063;27;20035;-74
2021/12/14 08:28:21;;;;;;;52.08;13.45;;;;;;;;;;5130873;27;19959;-74
2021/12/14 08:30:57;;;;;;;58.28;14.40;;;;;;;;;;5130347;27;20039;-74
2021/12/14 08:33:25;;;;;;;57.72;11.82;;;;;;;;;;5131892;27;20030;-74
2021/12/14 08:35:53;;;;;;;31.85;13.10;;;;;;;;;;5128668;27;20400;-74
2021/12/14 08:38:20;;;;;;;43.10;13.50;;;;;;;;;;5128495;27;20027;-74
2021/12/14 08:40:51;;;;;;;35.72;12.05;;;;;;;;;;5129000;27;20076;-75
2021/12/14 08:43:23;;;;;;;;;;;;;;;;;;5129273;27;20307;-74
2021/12/14 08:45:54;;;;;;;89.55;13.30;;;;;;;;;;5130358;27;20323;-74
2021/12/14 08:48:40;;;;;;;104.50;13.68;;;;;;;;;;5131195;27;20024;-74
2021/12/14 08:51:13;;;;;;;46.25;11.82;;;;;;;;;;5131728;27;20031;-74
2021/12/14 08:53:41;;;;;;;28.38;10.98;;;;;;;;;;5110093;27;20039;-74
2021/12/14 08:56:09;;;;;;;26.10;10.98;;;;;;;;;;5128084;27;20031;-74
2021/12/14 08:58:35;;;;;;;31.92;10.30;;;;;;;;;;5124544;27;20023;-74
2021/12/14 09:01:07;;;;;;;26.77;9.60;;;;;;;;;;5129965;27;20035;-74
2021/12/14 09:03:35;;;;;;;59.35;10.88;;;;;;;;;;5131023;27;20023;-75
2021/12/14 09:06:05;;;;;;;39.72;9.90;;;;;;;;;;5129836;27;20033;-74
2021/12/14 09:08:32;;;;;;;32.63;9.93;;;;;;;;;;5126160;27;20485;-73
2021/12/14 09:10:58;;;;;;;20.98;9.07;;;;;;;;;;5122962;27;20544;-74
2021/12/14 09:13:27;;;;;;;28.70;8.88;;;;;;;;;;5128459;27;20488;-74
2021/12/14 09:15:53;;;;;;;46.90;10.35;;;;;;;;;;5129438;27;20114;-74
2021/12/14 09:18:20;;;;;;;67.30;12.25;;;;;;;;;;5130581;27;20029;-74
2021/12/14 09:20:46;;;;;;;30.33;12.13;;;;;;;;;;5128211;27;20035;-74
2021/12/14 09:23:14;;;;;;;56.80;12.77;;;;;;;;;;5127066;27;20027;-74
2021/12/14 09:25:41;;;;;;;43.45;14.32;;;;;;;;;;5129954;27;20396;-74
2021/12/14 09:28:08;;;;;;;50.25;12.32;;;;;;;;;;5128417;27;20027;-74
2021/12/14 09:30:36;;;;;;;43.33;9.52;;;;;;;;;;5130588;27;20402;-74
2021/12/14 09:33:03;;;;;;;47.53;13.02;;;;;;;;;;5130187;27;20053;-74
2021/12/14 09:35:30;;;;;;;50.28;10.98;;;;;;;;;;5109919;27;20043;-73
2021/12/14 09:37:58;;;;;;;26.60;10.70;;;;;;;;;;5128392;27;20422;-74
2021/12/14 09:40:27;;;;;;;31.55;10.52;;;;;;;;;;5128190;28;20027;-74
2021/12/14 09:42:54;;;;;;;26.85;12.10;;;;;;;;;;5128869;28;20039;-73
2021/12/14 09:45:27;;;;;;;59.78;12.85;;;;;;;;;;5131074;28;20051;-74
2021/12/14 09:47:53;;;;;;;33.35;12.27;;;;;;;;;;5127681;28;20023;-74
2021/12/14 09:50:24;;;;;;;48.33;13.32;;;;;;;;;;5128271;28;20023;-73
2021/12/14 09:52:51;;;;;;;32.95;12.43;;;;;;;;;;5127937;28;20031;-74
2021/12/14 09:55:20;;;;;;;26.25;12.30;;;;;;;;;;5127373;28;20031;-74
2021/12/14 09:57:48;;;;;;;21.45;12.77;;;;;;;;;;5121158;28;20047;-75
2021/12/14 10:00:35;;;;;;;34.40;13.40;;;;;;;;;;5111887;28;20035;-74
2021/12/14 10:03:02;;;;;;;32.08;13.90;;;;;;;;;;5129807;28;20038;-74
2021/12/14 10:05:35;;;;;;;68.05;15.05;;;;;;;;;;5109610;28;20423;-73
2021/12/14 10:08:02;;;;;;;26.70;14.07;;;;;;;;;;5127329;28;20035;-73
2021/12/14 10:10:31;;;;;;;27.73;14.25;;;;;;;;;;5127842;28;20071;-74
2021/12/14 10:12:58;;;;;;;29.85;14.73;;;;;;;;;;5123582;28;20031;-74
2021/12/14 10:15:24;;;;;;;31.65;15.60;;;;;;;;;;5131295;28;20033;-74
2021/12/14 10:17:52;;;;;;;33.42;14.45;;;;;;;;;;5126766;28;20019;-74
2021/12/14 10:20:21;;;;;;;31.33;15.75;;;;;;;;;;5128886;28;20032;-74
2021/12/14 10:22:51;;;;;;;53.58;21.02;;;;;;;;;;5127740;28;20027;-74
2021/12/14 10:25:19;;;;;;;32.92;17.65;;;;;;;;;;5128187;27;20023;-74
2021/12/14 10:27:46;;;;;;;51.15;21.33;;;;;;;;;;5129183;28;20023;-74
2021/12/14 10:30:17;;;;;;;29.08;17.23;;;;;;;;;;5094252;28;20400;-74
2021/12/14 10:32:44;;;;;;;15.23;8.03;;;;;;;;;;5109063;28;20027;-74
2021/12/14 10:35:16;;;;;;;18.33;9.75;;;;;;;;;;5127154;27;20041;-74
2021/12/14 10:43:12;;;;;;;10.75;8.15;;;;;;;;;;5115783;27;20031;-74
2021/12/14 10:45:39;;;;;;;9.90;7.40;;;;;;;;;;5133287;27;20035;-74
2021/12/14 10:48:05;;;;;;;10.88;7.47;;;;;;;;;;5132308;27;20031;-74
2021/12/14 10:50:32;;;;;;;8.90;6.30;;;;;;;;;;5131004;27;20023;-73
2021/12/14 10:53:00;;;;;;;10.88;6.75;;;;;;;;;;5130695;27;20033;-74
2021/12/14 10:55:29;;;;;;;9.50;6.20;;;;;;;;;;5130875;27;20031;-74
2021/12/14 10:57:55;;;;;;;8.82;6.63;;;;;;;;;;5132045;27;20385;-74
2021/12/14 11:00:33;;;;;;;10.25;6.60;;;;;;;;;;5133856;27;20023;-74
2021/12/14 11:03:03;;;;;;;10.07;5.72;;;;;;;;;;5132422;27;20031;-73
2021/12/14 11:05:31;;;;;;;8.90;5.20;;;;;;;;;;5112961;27;20472;-74
2021/12/14 11:07:57;;;;;;;11.10;4.80;;;;;;;;;;5130299;27;20367;-74
2021/12/14 11:10:36;;;;;;;7.07;3.90;;;;;;;;;;5130402;27;20037;-74
2021/12/14 11:13:10;;;;;;;7.13;4.22;;;;;;;;;;5114994;27;20042;-74
2021/12/14 11:15:49;;;;;;;5.60;4.07;;;;;;;;;;5114072;27;20041;-74
2021/12/14 11:18:17;;;;;;;5.13;4.25;;;;;;;;;;5132711;27;20481;-73
2021/12/14 11:20:46;;;;;;;3.67;3.13;;;;;;;;;;5130345;27;20053;-73
2021/12/14 11:23:13;;;;;;;9.73;3.00;;;;;;;;;;5130345;27;20038;-74
2021/12/14 11:25:51;;;;;;;6.22;3.30;;;;;;;;;;5130382;27;20027;-73
2021/12/14 11:28:21;;;;;;;3.88;2.95;;;;;;;;;;5129989;27;20024;-74
2021/12/14 11:30:47;;;;;;;5.70;3.20;;;;;;;;;;5132088;27;21005;-74
2021/12/14 11:33:20;;;;;;;6.38;3.28;;;;;;;;;;5131974;27;20441;-73
2021/12/14 11:36:10;;;;;;;5.18;2.75;;;;;;;;;;5130005;27;20035;-74
2021/12/14 11:38:57;;;;;;;5.03;2.70;;;;;;;;;;5029227;28;20188;-74
2021/12/14 11:41:26;;;;;;;3.50;2.85;;;;;;;;;;5029839;28;20053;-74
2021/12/14 11:43:56;;;;;;;3.47;2.25;;;;;;;;;;5029063;28;20083;-74
2021/12/14 11:46:23;;;;;;;3.10;2.80;;;;;;;;;;5029552;28;20033;-73
2021/12/14 11:48:49;;;;;;;6.35;2.85;;;;;;;;;;5029173;28;20124;-73
2021/12/14 11:51:16;;;;;;;5.07;3.00;;;;;;;;;;5029501;28;20033;-73
2021/12/14 11:53:50;;;;;;;5.97;2.90;;;;;;;;;;5028442;28;20026;-73
2021/12/14 11:56:17;;;;;;;4.00;2.75;;;;;;;;;;5029355;28;20045;-73
2021/12/14 11:58:45;;;;;;;5.13;3.17;;;;;;;;;;5028915;28;20029;-73
2021/12/14 12:01:11;;;;;;;4.60;3.10;;;;;;;;;;5029129;28;20029;-73
2021/12/14 12:03:41;;;;;;;3.80;2.80;;;;;;;;;;5029385;28;20500;-74
2021/12/14 12:06:14;;;;;;;7.43;2.80;;;;;;;;;;5029789;28;20029;-73
2021/12/14 12:11:37;;;;;;;4.80;3.08;;;;;;;;;;5026153;28;20048;-73
2021/12/14 12:14:22;;;;;;;3.47;3.00;;;;;;;;;;5028885;28;20045;-73
2021/12/14 12:16:50;;;;;;;3.70;2.78;;;;;;;;;;5130582;27;20053;-73
2021/12/14 12:19:21;;;;;;;3.33;2.65;;;;;;;;;;5129280;27;20023;-73
2021/12/14 12:21:48;;;;;;;4.43;2.60;;;;;;;;;;5130913;27;20396;-73
2021/12/14 12:24:50;;;;;;;4.43;3.50;;;;;;;;;;5131710;27;20389;-76
2021/12/14 12:27:18;;;;;;;9.25;3.80;;;;;;;;;;5067987;28;20061;-78
2021/12/14 12:29:45;;;;;;;11.05;4.38;;;;;;;;;;5065773;28;20105;-71
2021/12/14 12:32:18;;;;;;;6.95;5.30;;;;;;;;;;5065865;28;20536;-73
2021/12/14 12:34:47;;;;;;;6.10;4.10;;;;;;;;;;5065860;28;20163;-73
2021/12/14 12:37:14;;;;;;;9.40;4.55;;;;;;;;;;5065705;28;20031;-74
2021/12/14 12:39:47;;;;;;;5.40;4.22;;;;;;;;;;5067678;28;20029;-74
2021/12/14 12:42:16;;;;;;;6.32;4.22;;;;;;;;;;5064375;28;20041;-73
2021/12/14 12:44:43;;;;;;;6.90;3.65;;;;;;;;;;5064113;28;20044;-73
2021/12/14 12:47:14;;;;;;;4.50;3.20;;;;;;;;;;5065256;28;20040;-73
2021/12/14 12:49:40;;;;;;;5.23;3.77;;;;;;;;;;5065046;28;20028;-73
2021/12/14 12:52:14;;;;;;;5.57;4.43;;;;;;;;;;5048345;28;20402;-73
2021/12/14 12:54:56;;;;;;;5.70;4.30;;;;;;;;;;5065373;28;20043;-73
2021/12/14 12:57:33;;;;;;;6.38;3.17;;;;;;;;;;5067685;28;20456;-71
2021/12/14 13:00:18;;;;;;;6.50;4.35;;;;;;;;;;5064582;28;20628;-73
2021/12/14 13:02:51;;;;;;;9.27;4.50;;;;;;;;;;5127956;27;20031;-73
2021/12/14 13:05:23;;;;;;;8.38;5.10;;;;;;;;;;5123606;27;20023;-73
2021/12/14 13:07:49;;;;;;;8.88;4.65;;;;;;;;;;5128240;27;20027;-73
2021/12/14 13:10:16;;;;;;;8.20;5.10;;;;;;;;;;5128153;27;20575;-73
2021/12/14 13:12:45;;;;;;;8.15;5.05;;;;;;;;;;5112172;27;20043;-73
2021/12/14 13:15:30;;;;;;;8.55;5.82;;;;;;;;;;5129806;27;20055;-73
2021/12/14 13:18:15;;;;;;;9.85;6.55;;;;;;;;;;5108485;27;20031;-73
2021/12/14 13:20:42;;;;;;;13.63;6.72;;;;;;;;;;5083937;28;20039;-73
2021/12/14 13:23:08;;;;;;;11.40;6.47;;;;;;;;;;5122898;27;20023;-73
2021/12/14 13:25:36;;;;;;;11.60;5.93;;;;;;;;;;5124743;27;20019;-72
2021/12/14 13:28:03;;;;;;;12.05;6.13;;;;;;;;;;5121154;27;20520;-72
2021/12/14 13:30:30;;;;;;;13.02;6.95;;;;;;;;;;5126737;27;20038;-73
2021/12/14 13:32:57;;;;;;;15.07;6.38;;;;;;;;;;5128420;27;20033;-73
2021/12/14 13:35:27;;;;;;;10.05;6.30;;;;;;;;;;5129128;27;20045;-73
2021/12/14 13:38:01;;;;;;;13.15;6.47;;;;;;;;;;5121596;27;20027;-73
2021/12/14 13:40:37;;;;;;;9.23;6.28;;;;;;;;;;5127721;27;20033;-72
2021/12/14 13:43:21;;;;;;;9.43;5.88;;;;;;;;;;5112170;28;20390;-73
2021/12/14 13:45:59;;;;;;;7.35;5.43;;;;;;;;;;5129271;28;20050;-72
2021/12/14 13:48:27;;;;;;;7.18;5.40;;;;;;;;;;5128541;28;20055;-73
2021/12/14 13:50:57;;;;;;;7.57;5.47;;;;;;;;;;5119044;28;20058;-73
2021/12/14 13:53:24;;;;;;;10.97;5.53;;;;;;;;;;5126909;28;20015;-73
2021/12/14 13:55:55;;;;;;;8.40;4.72;;;;;;;;;;5127956;28;20037;-73
2021/12/14 13:58:21;;;;;;;9.57;4.70;;;;;;;;;;5127641;28;20046;-71
2021/12/14 14:00:48;;;;;;;8.90;4.78;;;;;;;;;;5129442;28;20484;-73
2021/12/14 14:03:15;;;;;;;10.45;4.40;;;;;;;;;;5129736;28;20023;-72
2021/12/14 14:05:43;;;;;;;14.00;4.88;;;;;;;;;;5127468;28;20031;-72
2021/12/14 14:08:12;;;;;;;7.88;5.00;;;;;;;;;;5127122;28;20031;-72
2021/12/14 14:10:38;;;;;;;9.07;4.97;;;;;;;;;;5129236;27;20015;-72
2021/12/14 14:13:07;;;;;;;10.18;4.55;;;;;;;;;;5133996;27;20023;-72
2021/12/14 14:15:35;;;;;;;7.55;4.03;;;;;;;;;;5134334;27;20039;-73
2021/12/14 14:18:02;;;;;;;12.98;5.50;;;;;;;;;;5132591;27;20033;-71
2021/12/14 14:20:32;;;;;;;9.77;4.65;;;;;;;;;;5131668;27;20031;-73
2021/12/14 14:23:09;;;;;;;8.75;5.50;;;;;;;;;;5130942;27;20029;-71
2021/12/14 14:25:35;;;;;;;16.10;6.45;;;;;;;;;;5131333;27;20029;-73
2021/12/14 14:28:03;;;;;;;11.60;5.75;;;;;;;;;;5131385;27;20528;-71
2021/12/14 14:30:35;;;;;;;7.70;4.18;;;;;;;;;;5134477;27;20027;-72
2021/12/14 14:33:09;;;;;;;8.20;4.55;;;;;;;;;;5132219;27;20028;-72
2021/12/14 14:36:02;;;;;;;14.38;4.45;;;;;;;;;;5130990;27;20031;-73
2021/12/14 14:38:29;;;;;;;14.20;4.05;;;;;;;;;;5029764;28;20045;-73
2021/12/14 14:41:00;;;;;;;9.57;4.22;;;;;;;;;;5030398;28;20033;-72
2021/12/14 14:43:44;;;;;;;9.65;5.13;;;;;;;;;;5011216;28;20037;-73
2021/12/14 14:46:11;;;;;;;16.92;9.00;;;;;;;;;;5030526;28;20028;-73
2021/12/14 14:48:37;;;;;;;13.45;9.60;;;;;;;;;;5030371;28;20049;-73
2021/12/14 14:51:03;;;;;;;13.00;6.97;;;;;;;;;;5030507;28;20087;-72
2021/12/14 14:53:31;;;;;;;17.23;9.35;;;;;;;;;;5030328;28;20034;-73
2021/12/14 14:55:59;;;;;;;12.48;7.88;;;;;;;;;;5030079;28;20052;-73
2021/12/14 14:58:29;;;;;;;16.33;7.80;;;;;;;;;;5029808;28;20025;-72
2021/12/14 15:01:22;;;;;;;12.93;7.82;;;;;;;;;;5030222;28;20392;-73
2021/12/14 15:03:51;;;;;;;12.70;7.13;;;;;;;;;;5027494;28;20423;-72
2021/12/14 15:06:21;;;;;;;17.10;7.40;;;;;;;;;;5030368;28;20026;-73
2021/12/14 15:08:51;;;;;;;12.30;6.72;;;;;;;;;;5011995;28;20041;-73
2021/12/14 15:11:18;;;;;;;13.05;7.30;;;;;;;;;;5030840;28;20040;-73
2021/12/14 15:13:55;;;;;;;14.70;7.85;;;;;;;;;;5030500;28;20128;-73
2021/12/14 15:16:24;;;;;;;14.57;7.72;;;;;;;;;;5124546;27;20043;-73
2021/12/14 15:18:52;;;;;;;15.20;9.07;;;;;;;;;;5114099;27;20485;-73
2021/12/14 15:21:40;;;;;;;23.58;8.82;;;;;;;;;;5133303;27;20033;-73
2021/12/14 15:24:26;;;;;;;22.73;7.28;;;;;;;;;;5134438;27;20362;-72